WetterOnline ( https://www.wetteronline.de )

Wetter aktuell Greiz

Aktuelles Wetter: Plauen (389m)

6-stündlich | Neueste Meldungen
Ortszeit Temperatur Wetter
Mo, 22.07. 8:00 14.5° C fast wolkenlos
Mo, 22.07. 2:00 14.5° C wolkenlos
So, 21.07. 20:00 24.0° C wolkig
So, 21.07. 14:00 20.8° C leicht bewölkt
So, 21.07. 8:00 18.1° C wolkig
So, 21.07. 2:00 18.8° C bewölkt
Sa, 20.07. 20:00 28.2° C bedeckt
Sa, 20.07. 14:00 28.4° C fast wolkenlos
Ortszeit Temperatur Wetter
Mo, 22.07. 12:00 25.0° C wolkig
Mo, 22.07. 11:50 25.0° C wolkig
Mo, 22.07. 11:40 25.6° C bewölkt
Mo, 22.07. 11:30 24.0° C bedeckt
Mo, 22.07. 11:20 24.0° C bedeckt
Mo, 22.07. 11:10 23.7° C bewölkt
Mo, 22.07. 11:00 23.8° C bedeckt
Mo, 22.07. 10:30 22.8° C bedeckt
Mo, 22.07. 10:00 21.7° C wolkig
Mo, 22.07. 9:30 19.8° C fast wolkenlos
Mo, 22.07. 9:00 18.5° C fast wolkenlos
Ortszeit Relative Feuchte Sichtweite
Mo, 22.07. 8:00 87% 22 km
Mo, 22.07. 2:00 92% 28 km
So, 21.07. 20:00 43% 70 km
So, 21.07. 14:00 78% 35 km
So, 21.07. 8:00 91% 14 km
So, 21.07. 2:00 73% 35 km
Sa, 20.07. 20:00 39% 35 km
Sa, 20.07. 14:00 39% 26 km
Ortszeit Relative Feuchte Sichtweite
Mo, 22.07. 12:00 42% 30 km
Mo, 22.07. 11:50 42% -
Mo, 22.07. 11:40 45% -
Mo, 22.07. 11:30 48% 45 km
Mo, 22.07. 11:20 48% -
Mo, 22.07. 11:10 46% -
Mo, 22.07. 11:00 48% 45 km
Mo, 22.07. 10:30 50% 45 km
Mo, 22.07. 10:00 54% 45 km
Mo, 22.07. 9:30 60% 35 km
Mo, 22.07. 9:00 70% 30 km
Ortszeit Niederschlagsmenge Niederschlagsart
Mo, 22.07. 8:00 0.0 l/m2 in 12 Std. -
Mo, 22.07. 2:00 0.0 l/m2 in 6 Std. -
So, 21.07. 20:00 13 l/m2 in 12 Std. Regen
So, 21.07. 14:00 13 l/m2 in 6 Std. Regenschauer
So, 21.07. 8:00 3 l/m2 in 12 Std. Regen
So, 21.07. 2:00 0.0 l/m2 in 6 Std. -
Sa, 20.07. 20:00 0.0 l/m2 in 12 Std. -
Sa, 20.07. 14:00 0.0 l/m2 in 6 Std. -
Ortszeit Niederschlagsmenge Niederschlagsart
Mo, 22.07. 12:00 0.0 l/m2 in 1 Std. -
Mo, 22.07. 11:50 keine Meldung -
Mo, 22.07. 11:40 keine Meldung -
Mo, 22.07. 11:30 0.0 l/m2 in 1 Std. -
Mo, 22.07. 11:20 keine Meldung -
Mo, 22.07. 11:10 keine Meldung -
Mo, 22.07. 11:00 0.0 l/m2 in 1 Std. -
Mo, 22.07. 10:30 0.0 l/m2 in 1 Std. -
Mo, 22.07. 10:00 0.0 l/m2 in 1 Std. -
Mo, 22.07. 9:30 0.0 l/m2 in 1 Std. -
Mo, 22.07. 9:00 0.0 l/m2 in 1 Std. -
Ortszeit Stärke Spitze Richtung
km/h Bft. km/h Grad Sektor
Mo, 22.07. 8:00 4 1 11 290° W
Mo, 22.07. 2:00 0 0 22 - -
So, 21.07. 20:00 13 3 30 340° N
So, 21.07. 14:00 7 2 29 30° NO
So, 21.07. 8:00 6 1 20 200° S
So, 21.07. 2:00 4 1 43 190° S
Sa, 20.07. 20:00 11 2 29 210° SW
Sa, 20.07. 14:00 13 3 31 230° SW
Ortszeit Stärke Spitze Richtung
km/h Bft. km/h Grad Sektor
Mo, 22.07. 12:00 9 2 15 270° W
Mo, 22.07. 11:50 9 2 - 270° W
Mo, 22.07. 11:40 7 2 - 320° NW
Mo, 22.07. 11:30 4 1 11 230° SW
Mo, 22.07. 11:20 4 1 - 230° SW
Mo, 22.07. 11:10 4 1 - 260° W
Mo, 22.07. 11:00 7 2 14 280° W
Mo, 22.07. 10:30 6 1 11 200° S
Mo, 22.07. 10:00 4 1 11 200° S
Mo, 22.07. 9:30 6 1 9 210° SW
Mo, 22.07. 9:00 4 1 7 190° S
Ortszeit Untergrenze Bedeckung Gattung
total tief tief mittel hoch
Mo, 22.07. 8:00 9000 m 1/8 0/8 - - -
Mo, 22.07. 2:00 - 0/8 0/8 - - -
So, 21.07. 20:00 2400 m 5/8 5/8 - - -
So, 21.07. 14:00 3000 m 3/8 3/8 - - -
So, 21.07. 8:00 1500 m 5/8 5/8 - - -
So, 21.07. 2:00 3600 m 7/8 7/8 - - -
Sa, 20.07. 20:00 4800 m 8/8 8/8 - - -
Sa, 20.07. 14:00 1800 m 1/8 1/8 - - -
Ortszeit Bedeckungsgrad in Achtel und Wolkenuntergrenze
Mo, 22.07. 12:00 2(4500m) 4(5400m) 5(8400m)
Mo, 22.07. 11:50 2(4500m) 4(5400m) 5(8400m)
Mo, 22.07. 11:40 3(4800m) 6(5400m) 7(8400m)
Mo, 22.07. 11:30 5(4800m) 8(5400m)
Mo, 22.07. 11:20 5(4800m) 8(5400m)
Mo, 22.07. 11:10 5(4800m) 7(5400m)
Mo, 22.07. 11:00 4(4800m) 8(6300m) 8(6300m)
Mo, 22.07. 10:30 8(5100m) 8(6300m)
Mo, 22.07. 10:00 7(5400m)
Mo, 22.07. 9:30 2(9000m) 3(9000m)
Mo, 22.07. 9:00 1(8400m)
Ortszeit Luftdruck NN (hPa) Tendenz (hPa in 3 Std.)
Mo, 22.07. 8:00 1024 + 0,1
Mo, 22.07. 2:00 1024 + 0,6
So, 21.07. 20:00 1020 + 1,1
So, 21.07. 14:00 1020 + 0,8
So, 21.07. 8:00 1018 + 2,0
So, 21.07. 2:00 1015 + 1,5
Sa, 20.07. 20:00 1011 - 0,6
Sa, 20.07. 14:00 1013 - 1,0
Ortszeit Luftdruck NN (hPa) Tendenz (hPa in 3 Std.)
Mo, 22.07. 12:00 1023 - 0,1
Mo, 22.07. 11:50 1023 keine Meldung
Mo, 22.07. 11:40 1023 keine Meldung
Mo, 22.07. 11:30 1023 - 0,3
Mo, 22.07. 11:20 1023 keine Meldung
Mo, 22.07. 11:10 1023 keine Meldung
Mo, 22.07. 11:00 1023 0,0
Mo, 22.07. 10:30 1023 0,0
Mo, 22.07. 10:00 1023 + 0,3
Mo, 22.07. 9:30 1024 + 0,3
Mo, 22.07. 9:00 1024 + 0,2
Ortszeit Schneehöhe (cm)
Mo, 22.07. 8:00 -
Mo, 22.07. 2:00 -
So, 21.07. 20:00 -
So, 21.07. 14:00 -
So, 21.07. 8:00 -
So, 21.07. 2:00 -
Sa, 20.07. 20:00 -
Sa, 20.07. 14:00 -
Ortszeit Schneehöhe (cm)
Mo, 22.07. 12:00 -
Mo, 22.07. 11:50 -
Mo, 22.07. 11:40 -
Mo, 22.07. 11:30 -
Mo, 22.07. 11:20 -
Mo, 22.07. 11:10 -
Mo, 22.07. 11:00 -
Mo, 22.07. 10:30 -
Mo, 22.07. 10:00 -
Mo, 22.07. 9:30 -
Mo, 22.07. 9:00 -
Link zu dieser Seite / Seite empfehlen

Das Wetter in ...